Time;durP1;ratioP1;P1;durP2;ratioP2;P2;SDS_P1;SDS_P2;PMS_P1;PMS_P2;Temp;Humidity;BMP_temperature;BMP_pressure;BME280_temperature;BME280_humidity;BME280_pressure;Samples;Min_cycle;Max_cycle;Signal;HPM_P1;HPM_P2
2022/01/27 00:01:06;;;;;;;15.40;10.00;;;;;;;2.41;87.55;100691.06;88422;1269;97371;-66
2022/01/27 00:03:22;;;;;;;;;;;;;;;2.39;87.56;100686.11;88468;1271;87186;-76
2022/01/27 00:05:32;;;;;;;14.90;10.00;;;;;;;2.30;87.53;100685.37;88428;1271;94472;-75
2022/01/27 00:07:54;;;;;;;15.00;10.20;;;;;;;2.35;87.51;100683.91;88445;1271;79125;-65
2022/01/27 00:10:14;;;;;;;13.90;10.20;;;;;;;2.36;87.40;100687.40;88446;1271;82916;-64
2022/01/27 00:12:23;;;;;;;15.90;9.90;;;;;;;2.35;87.39;100689.44;88457;1271;97603;-71
2022/01/27 00:14:33;;;;;;;14.90;9.70;;;;;;;2.35;87.28;100687.28;88430;1271;89325;-69
2022/01/27 00:16:54;;;;;;;13.90;9.20;;;;;;;2.35;87.23;100680.21;88433;1271;93713;-71
2022/01/27 00:19:03;;;;;;;14.90;9.60;;;;;;;2.32;87.13;100683.42;88436;1270;77577;-65
2022/01/27 00:21:15;;;;;;;13.80;9.60;;;;;;;2.33;87.23;100683.16;88464;1271;82055;-65
2022/01/27 00:23:24;;;;;;;16.10;10.90;;;;;;;2.24;87.24;100681.00;88372;1271;97615;-75
2022/01/27 00:25:33;;;;;;;14.70;10.80;;;;;;;2.21;87.37;100677.81;88424;1271;88724;-74
2022/01/27 00:27:43;;;;;;;16.30;10.70;;;;;;;2.19;87.34;100679.40;88490;1271;96017;-75
2022/01/27 00:29:55;;;;;;;18.20;11.30;;;;;;;2.15;87.30;100674.95;88412;1271;78862;-76
2022/01/27 00:32:08;;;;;;;17.20;11.50;;;;;;;2.15;87.25;100674.96;88433;1271;82654;-75
2022/01/27 00:34:17;;;;;;;15.90;10.80;;;;;;;2.11;87.23;100669.48;88424;1271;98270;-75
2022/01/27 00:36:29;;;;;;;16.00;10.60;;;;;;;2.07;87.53;100668.55;88447;1271;86497;-74
2022/01/27 00:38:42;;;;;;;13.90;9.80;;;;;;;2.07;87.35;100673.52;88414;1271;96297;-66
2022/01/27 00:40:52;;;;;;;16.30;10.10;;;;;;;2.07;87.64;100674.90;88437;1271;80229;-65
2022/01/27 00:43:04;;;;;;;17.80;12.10;;;;;;;2.10;87.57;100675.08;88442;1271;80785;-76
2022/01/27 00:45:15;;;;;;;24.50;16.80;;;;;;;2.15;87.46;100671.38;88431;1271;98971;-77
2022/01/27 00:47:25;;;;;;;28.10;20.40;;;;;;;2.17;87.66;100674.79;88445;1270;86467;-75
2022/01/27 00:49:36;;;;;;;26.10;18.40;;;;;;;2.21;87.55;100668.80;88405;1270;96011;-75
2022/01/27 00:51:46;;;;;;;22.80;17.00;;;;;;;2.24;87.65;100676.55;88421;1271;79424;-75
2022/01/27 00:54:03;;;;;;;17.60;12.10;;;;;;;2.27;87.65;100672.21;88440;1271;82411;-68
2022/01/27 00:56:23;;;;;;;13.40;10.00;;;;;;;2.29;87.73;100674.69;88438;1271;99216;-69
2022/01/27 00:58:36;;;;;;;14.40;9.30;;;;;;;2.31;87.65;100674.34;88477;1271;86602;-68
2022/01/27 01:00:54;;;;;;;12.90;8.90;;;;;;;2.35;87.54;100672.55;88414;1271;95587;-69
2022/01/27 01:03:09;;;;;;;14.90;9.20;;;;;;;2.34;87.65;100676.67;88466;1271;80505;-69
2022/01/27 01:05:35;;;;;;;12.50;8.40;;;;;;;2.32;87.57;100677.74;88483;1270;83099;-69
2022/01/27 01:07:49;;;;;;;13.00;9.30;;;;;;;2.29;87.60;100675.52;88425;1271;99363;-69
2022/01/27 01:10:45;;;;;;;14.40;9.60;;;;;;;2.31;87.59;100673.36;88449;1271;86339;-69
2022/01/27 01:15:17;;;;;;;15.70;9.60;;;;;;;2.28;87.59;100673.46;88412;1271;80407;-69
2022/01/27 01:20:16;;;;;;;17.30;9.70;;;;;;;2.41;87.65;100663.84;88421;1271;99477;-68
2022/01/27 01:29:55;;;;;;;17.30;10.50;;;;;;;2.38;87.65;100657.14;88456;1271;82247;-74
2022/01/27 01:32:18;;;;;;;18.60;11.00;;;;;;;2.41;87.56;100657.23;88418;1271;99288;-74
2022/01/27 01:34:30;;;;;;;19.90;11.30;;;;;;;2.44;87.63;100662.54;88448;1271;87549;-74
2022/01/27 01:36:48;;;;;;;18.40;11.10;;;;;;;2.38;87.54;100663.57;88442;1271;95311;-74
2022/01/27 01:38:57;;;;;;;18.90;11.90;;;;;;;2.36;87.60;100666.23;88426;1271;80330;-68
2022/01/27 01:41:07;;;;;;;18.80;11.80;;;;;;;2.40;87.56;100662.52;88443;1271;81013;-68
2022/01/27 01:43:16;;;;;;;21.70;12.50;;;;;;;2.41;87.57;100663.36;88468;1271;98881;-74
2022/01/27 01:45:26;;;;;;;19.60;12.00;;;;;;;2.44;87.59;100663.49;88448;1270;85864;-74
2022/01/27 01:47:35;;;;;;;20.80;11.60;;;;;;;2.42;87.63;100656.71;88485;1271;93919;-67
2022/01/27 01:49:45;;;;;;;21.70;12.40;;;;;;;2.44;87.70;100655.41;88424;1269;80748;-68
2022/01/27 01:51:55;;;;;;;19.50;12.10;;;;;;;2.43;87.59;100656.63;88421;1271;82152;-68
2022/01/27 01:54:05;;;;;;;21.20;12.30;;;;;;;2.45;87.54;100655.38;88426;1271;97819;-72
2022/01/27 01:56:17;;;;;;;19.50;12.30;;;;;;;2.44;87.65;100651.00;88463;1271;87628;-73
2022/01/27 01:58:27;;;;;;;22.20;13.10;;;;;;;2.41;87.72;100654.23;88451;1271;93269;-67
2022/01/27 02:00:37;;;;;;;23.00;14.20;;;;;;;2.38;87.68;100655.01;88391;1268;80602;-71
2022/01/27 02:02:46;;;;;;;24.00;13.80;;;;;;;2.36;87.66;100653.09;88402;1270;83554;-72
2022/01/27 02:04:56;;;;;;;26.00;14.10;;;;;;;2.34;87.95;100648.59;88324;1271;98883;-73
2022/01/27 02:07:19;;;;;;;26.50;14.20;;;;;;;2.29;87.78;100647.45;88444;1271;88593;-73
2022/01/27 02:09:46;;;;;;;27.00;14.70;;;;;;;2.30;87.92;100654.67;88416;1271;95602;-73
2022/01/27 02:19:18;;;;;;;28.00;15.00;;;;;;;2.36;87.84;100644.50;88430;1271;87673;-68
2022/01/27 02:21:26;;;;;;;29.20;15.70;;;;;;;2.35;87.75;100639.48;88454;1271;93964;-69
2022/01/27 02:23:35;;;;;;;27.60;14.10;;;;;;;2.36;87.84;100636.92;88437;1271;79983;-69
2022/01/27 02:25:44;;;;;;;29.70;15.70;;;;;;;2.38;87.81;100633.34;88482;1271;80657;-68
2022/01/27 02:27:57;;;;;;;33.90;15.00;;;;;;;2.35;87.70;100629.17;88435;1271;99633;-75
2022/01/27 02:30:08;;;;;;;30.30;16.10;;;;;;;2.30;87.95;100626.90;88464;1271;88968;-73
2022/01/27 02:32:22;;;;;;;26.10;15.10;;;;;;;2.32;87.89;100624.63;88441;1271;95662;-73
2022/01/27 02:34:31;;;;;;;29.50;15.50;;;;;;;2.32;88.03;100620.17;88436;1270;79087;-74
2022/01/27 02:36:41;;;;;;;33.80;16.60;;;;;;;2.34;87.98;100616.27;88397;1271;83347;-74
2022/01/27 02:38:54;;;;;;;31.80;15.80;;;;;;;2.28;87.81;100609.66;88493;1271;97042;-67
2022/01/27 02:41:12;;;;;;;27.80;15.70;;;;;;;2.24;87.88;100605.29;88428;1271;88973;-67
2022/01/27 02:43:22;;;;;;;32.80;16.00;;;;;;;2.26;87.87;100601.73;88413;1270;93811;-74
2022/01/27 02:45:41;;;;;;;28.70;15.20;;;;;;;2.28;87.84;100605.96;88425;1271;81790;-74
2022/01/27 02:47:52;;;;;;;31.80;16.70;;;;;;;2.27;87.92;100608.01;88433;1271;83169;-74
2022/01/27 02:50:02;;;;;;;35.20;16.60;;;;;;;2.29;87.87;100606.23;88432;1271;97634;-75
2022/01/27 02:52:15;;;;;;;29.50;15.00;;;;;;;2.31;88.04;100605.30;88438;1271;88939;-72
2022/01/27 02:54:25;;;;;;;30.10;15.80;;;;;;;2.34;88.03;100594.48;88408;1271;95081;-75
2022/01/27 02:56:38;;;;;;;29.90;16.30;;;;;;;2.33;87.99;100593.95;88455;1271;78615;-75
2022/01/27 02:58:47;;;;;;;31.00;15.10;;;;;;;2.35;88.14;100595.20;88447;1271;82631;-76
2022/01/27 03:00:59;;;;;;;31.00;16.00;;;;;;;2.38;88.20;100591.39;88425;1269;97067;-74
2022/01/27 03:03:08;;;;;;;32.20;16.00;;;;;;;2.40;88.25;100587.49;88433;1271;89613;-66
2022/01/27 03:05:20;;;;;;;33.90;16.20;;;;;;;2.43;88.11;100588.39;88423;1271;95631;-67
2022/01/27 03:07:30;;;;;;;30.20;16.20;;;;;;;2.44;87.99;100586.48;88437;1271;78136;-67
2022/01/27 03:09:39;;;;;;;33.90;17.80;;;;;;;2.41;87.95;100587.48;88325;1271;81389;-68
2022/01/27 03:11:58;;;;;;;34.00;18.00;;;;;;;2.38;88.02;100586.77;88413;1271;98843;-67
2022/01/27 03:14:08;;;;;;;30.30;17.60;;;;;;;2.37;88.09;100593.86;88362;1271;87406;-72
2022/01/27 03:16:17;;;;;;;32.80;18.50;;;;;;;2.34;88.26;100581.63;88145;1271;323196;-72
2022/01/27 03:18:26;;;;;;;36.70;18.90;;;;;;;2.34;87.98;100581.82;88387;1271;79691;-67
2022/01/27 03:20:38;;;;;;;39.60;18.30;;;;;;;2.31;88.16;100576.90;88367;1271;81824;-67
2022/01/27 03:22:47;;;;;;;40.60;18.30;;;;;;;2.29;88.06;100579.77;88371;1271;98131;-73
2022/01/27 03:24:56;;;;;;;31.30;16.10;;;;;;;2.27;88.24;100579.55;88393;1271;88297;-73
2022/01/27 03:27:14;;;;;;;37.60;17.10;;;;;;;2.26;88.31;100576.11;88367;1271;95220;-74
2022/01/27 03:29:23;;;;;;;35.20;18.00;;;;;;;2.24;88.32;100574.66;88393;1271;80226;-67
2022/01/27 03:31:32;;;;;;;36.20;17.90;;;;;;;2.24;88.28;100572.02;88402;1271;82119;-67
2022/01/27 03:33:44;;;;;;;35.10;17.20;;;;;;;2.20;88.45;100574.71;88405;1271;99272;-67
2022/01/27 03:35:56;;;;;;;31.60;16.40;;;;;;;2.22;88.48;100580.59;88391;1271;89705;-67
2022/01/27 03:38:08;;;;;;;33.90;16.60;;;;;;;2.23;88.48;100582.98;88380;1271;92899;-67
2022/01/27 03:40:20;;;;;;;28.90;14.80;;;;;;;2.25;88.36;100580.60;88376;1271;80137;-67
2022/01/27 03:42:29;;;;;;;33.80;16.60;;;;;;;2.27;88.48;100579.80;88359;1271;82407;-73
2022/01/27 03:44:42;;;;;;;34.90;17.50;;;;;;;2.31;88.59;100581.58;88344;1271;99330;-74
2022/01/27 03:46:52;;;;;;;31.90;15.90;;;;;;;2.32;88.49;100583.90;88356;1271;87656;-73
2022/01/27 03:49:02;;;;;;;29.10;15.80;;;;;;;2.33;88.54;100582.10;88312;1271;95697;-73
2022/01/27 03:51:14;;;;;;;37.20;17.30;;;;;;;2.32;88.67;100580.05;88336;1271;80253;-73
2022/01/27 03:53:26;;;;;;;35.40;17.40;;;;;;;2.31;88.66;100579.60;88353;1271;82039;-68
2022/01/27 03:55:38;;;;;;;34.00;16.00;;;;;;;2.32;88.61;100578.98;88377;1271;96372;-68
2022/01/27 03:57:50;;;;;;;33.30;15.90;;;;;;;2.33;88.52;100578.14;88389;1271;87244;-75
2022/01/27 03:59:59;;;;;;;36.50;16.50;;;;;;;2.35;88.52;100576.25;88369;1271;95558;-73
2022/01/27 04:02:11;;;;;;;31.70;15.90;;;;;;;2.38;88.53;100576.67;88350;1271;79197;-71
2022/01/27 04:04:20;;;;;;;41.10;17.20;;;;;;;2.42;88.44;100563.56;88394;1271;79874;-73
2022/01/27 04:06:35;;;;;;;31.40;17.70;;;;;;;2.42;88.60;100554.29;88408;1271;98684;-74
2022/01/27 04:08:48;;;;;;;34.20;17.10;;;;;;;2.45;88.40;100550.14;88393;1271;88773;-68
2022/01/27 04:10:57;;;;;;;32.40;15.70;;;;;;;2.45;88.45;100543.02;88414;1270;94610;-68
2022/01/27 04:13:08;;;;;;;39.00;16.40;;;;;;;2.48;88.44;100543.31;88306;1271;81673;-67
2022/01/27 04:15:20;;;;;;;31.10;16.00;;;;;;;2.50;88.43;100543.15;88419;1271;82866;-67
2022/01/27 04:17:33;;;;;;;34.40;16.40;;;;;;;2.49;88.51;100545.14;88408;1271;96823;-75
2022/01/27 04:19:42;;;;;;;34.80;15.70;;;;;;;2.50;88.35;100545.92;88321;1271;89316;-64
2022/01/27 04:21:55;;;;;;;33.10;15.50;;;;;;;2.48;88.50;100549.73;88391;1271;95971;-65
2022/01/27 04:24:11;;;;;;;29.90;15.30;;;;;;;2.44;88.47;100550.23;88301;1271;80422;-66
2022/01/27 04:26:26;;;;;;;34.40;15.20;;;;;;;2.46;88.42;100548.75;88493;1271;81474;-66
2022/01/27 04:28:37;;;;;;;32.00;15.10;;;;;;;2.46;88.58;100545.80;88431;1271;96771;-66
2022/01/27 04:30:47;;;;;;;29.70;14.50;;;;;;;2.50;88.39;100544.91;88420;1271;87331;-63
2022/01/27 04:32:59;;;;;;;30.90;15.20;;;;;;;2.49;88.37;100537.90;88396;1271;93985;-72
2022/01/27 04:35:14;;;;;;;31.70;15.00;;;;;;;2.47;88.40;100538.54;88398;1271;78875;-74
2022/01/27 04:37:25;;;;;;;30.20;15.20;;;;;;;2.46;88.55;100536.02;88396;1271;80129;-72
2022/01/27 04:39:40;;;;;;;29.50;15.10;;;;;;;2.47;88.31;100531.13;88389;1271;99321;-73
2022/01/27 04:41:55;;;;;;;30.30;14.60;;;;;;;2.48;88.40;100533.15;88409;1271;88555;-73
2022/01/27 04:44:14;;;;;;;33.60;15.40;;;;;;;2.47;88.50;100532.54;88396;1271;95033;-64
2022/01/27 04:46:31;;;;;;;28.40;14.60;;;;;;;2.47;88.41;100528.45;88407;1271;81070;-65
2022/01/27 04:48:48;;;;;;;29.60;14.20;;;;;;;2.51;88.32;100527.94;88425;1271;83167;-72
2022/01/27 04:51:05;;;;;;;29.00;14.40;;;;;;;2.52;88.43;100522.07;88401;1271;99145;-74
2022/01/27 04:53:23;;;;;;;31.60;14.90;;;;;;;2.48;88.52;100526.79;88423;1271;87823;-65
2022/01/27 04:55:35;;;;;;;30.70;14.80;;;;;;;2.48;88.46;100526.44;88397;1271;95398;-63
2022/01/27 04:57:45;;;;;;;29.90;14.20;;;;;;;2.49;88.31;100529.73;88391;1271;80442;-64
2022/01/27 04:59:58;;;;;;;27.40;14.30;;;;;;;2.47;88.22;100523.23;88418;1271;81560;-65
2022/01/27 05:02:25;;;;;;;30.00;13.60;;;;;;;2.52;88.36;100530.53;88402;1271;97957;-64
2022/01/27 05:04:42;;;;;;;27.10;12.70;;;;;;;2.53;88.13;100524.71;88409;1271;88587;-73
2022/01/27 05:06:51;;;;;;;30.50;12.50;;;;;;;2.53;88.12;100518.64;88402;1271;95302;-73
2022/01/27 05:09:00;;;;;;;25.40;12.20;;;;;;;2.52;88.25;100508.80;88376;1271;81991;-73
2022/01/27 05:11:17;;;;;;;31.10;13.00;;;;;;;2.52;88.12;100502.94;88456;1271;82752;-73
2022/01/27 05:13:36;;;;;;;25.40;13.60;;;;;;;2.49;88.12;100488.76;88409;1271;99331;-73
2022/01/27 05:15:49;;;;;;;27.40;12.60;;;;;;;2.51;88.27;100486.52;88438;1271;89127;-73
2022/01/27 05:17:58;;;;;;;26.00;12.10;;;;;;;2.51;88.13;100488.63;88412;1271;95725;-65
2022/01/27 05:20:08;;;;;;;29.50;12.80;;;;;;;2.50;88.24;100486.96;88380;1271;79458;-65
2022/01/27 05:22:17;;;;;;;26.50;12.70;;;;;;;2.52;88.20;100484.64;88439;1271;83160;-74
2022/01/27 05:24:29;;;;;;;26.50;12.80;;;;;;;2.46;88.31;100485.89;88406;1271;98199;-74
2022/01/27 05:26:39;;;;;;;29.50;12.40;;;;;;;2.43;88.32;100494.15;88399;1271;87788;-72
2022/01/27 05:28:48;;;;;;;27.50;11.80;;;;;;;2.45;88.23;100484.39;88434;1271;93412;-73
2022/01/27 05:30:58;;;;;;;28.60;13.60;;;;;;;2.46;88.15;100483.05;88392;1271;77941;-73
2022/01/27 05:33:09;;;;;;;26.10;12.80;;;;;;;2.48;88.36;100485.73;88434;1270;80855;-76
2022/01/27 05:35:18;;;;;;;29.70;13.60;;;;;;;2.43;88.34;100482.23;88397;1271;97786;-75
2022/01/27 05:37:27;;;;;;;24.80;12.60;;;;;;;2.36;88.29;100480.48;88393;1270;88451;-65
2022/01/27 05:39:39;;;;;;;31.20;12.80;;;;;;;2.38;88.40;100479.07;88388;1271;94494;-63
2022/01/27 05:41:48;;;;;;;29.10;13.40;;;;;;;2.42;88.31;100482.67;88391;1271;80635;-64
2022/01/27 05:44:00;;;;;;;33.00;14.40;;;;;;;2.40;88.43;100478.95;88410;1271;80801;-64
2022/01/27 05:46:09;;;;;;;28.10;13.00;;;;;;;2.41;88.51;100479.92;88392;1271;97182;-64
2022/01/27 05:48:21;;;;;;;33.00;15.90;;;;;;;2.43;88.25;100471.73;88392;1271;89021;-64
2022/01/27 05:50:34;;;;;;;29.90;14.10;;;;;;;2.46;88.28;100468.97;88386;1271;95830;-63
2022/01/27 05:52:43;;;;;;;31.20;13.50;;;;;;;2.45;88.53;100470.52;88397;1271;79257;-65
2022/01/27 05:54:52;;;;;;;31.20;14.20;;;;;;;2.43;88.48;100474.94;88411;1270;81094;-65
2022/01/27 05:57:05;;;;;;;31.30;14.70;;;;;;;2.44;88.56;100474.66;88416;1271;99725;-64
2022/01/27 05:59:14;;;;;;;34.50;15.70;;;;;;;2.44;88.36;100474.67;88429;1271;87378;-64
2022/01/27 06:01:23;;;;;;;31.00;14.10;;;;;;;2.46;88.51;100475.61;88393;1271;95242;-65
2022/01/27 06:03:32;;;;;;;33.90;16.10;;;;;;;2.47;88.56;100471.40;88315;1271;80091;-74
2022/01/27 06:05:44;;;;;;;34.00;15.20;;;;;;;2.44;88.67;100469.15;88389;1271;83099;-74
2022/01/27 06:07:53;;;;;;;35.60;16.00;;;;;;;2.47;88.56;100463.36;88372;1271;98308;-73
2022/01/27 06:10:02;;;;;;;34.90;15.10;;;;;;;2.49;88.57;100459.86;88441;1271;88701;-64
2022/01/27 06:12:13;;;;;;;33.20;15.40;;;;;;;2.50;88.47;100452.83;88374;1271;95423;-71
2022/01/27 06:14:25;;;;;;;36.50;16.40;;;;;;;2.50;88.68;100451.71;88365;1271;80251;-73
2022/01/27 06:16:34;;;;;;;35.00;15.70;;;;;;;2.50;88.58;100448.54;88419;1271;80497;-73
2022/01/27 06:18:43;;;;;;;34.80;16.00;;;;;;;2.49;88.51;100450.05;88365;1271;98486;-65
2022/01/27 06:20:52;;;;;;;33.00;15.30;;;;;;;2.48;88.70;100446.04;88388;1271;87729;-65
2022/01/27 06:23:04;;;;;;;35.60;17.10;;;;;;;2.47;88.65;100449.49;88282;1271;94707;-65
2022/01/27 06:25:16;;;;;;;31.00;15.90;;;;;;;2.48;88.73;100446.80;88397;1271;79496;-64
2022/01/27 06:27:26;;;;;;;31.40;15.30;;;;;;;2.49;88.74;100441.33;88395;1270;82976;-71
2022/01/27 06:29:39;;;;;;;35.90;17.00;;;;;;;2.50;88.66;100432.52;88408;1271;96845;-72
2022/01/27 06:31:48;;;;;;;35.10;15.70;;;;;;;2.49;88.69;100429.83;88420;1271;86933;-74
2022/01/27 06:33:57;;;;;;;30.30;14.60;;;;;;;2.50;88.64;100422.45;88395;1271;93401;-63
2022/01/27 06:36:10;;;;;;;31.60;15.40;;;;;;;2.49;88.87;100419.80;88407;1271;79385;-64
2022/01/27 06:38:19;;;;;;;33.00;15.40;;;;;;;2.51;88.48;100420.15;88412;1271;80477;-65
2022/01/27 06:40:28;;;;;;;37.80;16.50;;;;;;;2.51;88.79;100417.15;88378;1271;100186;-64
2022/01/27 06:42:40;;;;;;;36.80;17.40;;;;;;;2.46;88.80;100413.84;88405;1271;87579;-73
2022/01/27 06:44:50;;;;;;;35.30;15.70;;;;;;;2.47;88.74;100408.23;88338;1271;95147;-73
2022/01/27 06:47:02;;;;;;;38.50;16.80;;;;;;;2.48;88.66;100404.81;88355;1271;80661;-73
2022/01/27 06:49:16;;;;;;;31.00;16.70;;;;;;;2.44;88.83;100403.23;88416;1271;82590;-65
2022/01/27 06:51:29;;;;;;;33.20;17.70;;;;;;;2.46;88.68;100407.34;88287;1271;98022;-64
2022/01/27 06:53:41;;;;;;;33.20;16.60;;;;;;;2.44;88.86;100409.41;88356;1271;88931;-64
2022/01/27 06:55:52;;;;;;;35.30;17.10;;;;;;;2.48;88.81;100405.17;88379;1271;94538;-64
2022/01/27 06:58:01;;;;;;;34.50;18.30;;;;;;;2.49;88.87;100404.36;88393;1271;79582;-65
2022/01/27 07:00:13;;;;;;;35.70;17.70;;;;;;;2.51;88.82;100398.35;88379;1271;81772;-64
2022/01/27 07:02:22;;;;;;;34.20;17.10;;;;;;;2.53;88.92;100398.12;88394;1271;97939;-64
2022/01/27 07:04:35;;;;;;;29.60;16.60;;;;;;;2.51;88.69;100392.28;88399;1271;88727;-63
2022/01/27 07:06:45;;;;;;;35.80;17.50;;;;;;;2.51;88.88;100395.70;88272;1271;95142;-65
2022/01/27 07:08:55;;;;;;;32.60;18.20;;;;;;;2.51;88.91;100393.19;88400;1271;79312;-85
2022/01/27 07:11:04;;;;;;;35.70;18.20;;;;;;;2.54;88.65;100398.76;88408;1271;80549;-88
2022/01/27 07:13:15;;;;;;;37.30;17.40;;;;;;;2.54;88.70;100401.80;88408;1271;99057;-62
2022/01/27 07:15:25;;;;;;;36.30;18.10;;;;;;;2.52;88.91;100401.83;88297;1271;86317;-63
2022/01/27 07:17:37;;;;;;;35.80;19.10;;;;;;;2.50;88.70;100397.74;88300;1271;96034;-65
2022/01/27 07:19:46;;;;;;;40.60;19.00;;;;;;;2.48;88.83;100390.05;88372;1270;79005;-64
2022/01/27 07:21:55;;;;;;;34.40;17.70;;;;;;;2.50;88.83;100385.31;88394;1271;80068;-64
2022/01/27 07:24:05;;;;;;;40.10;19.30;;;;;;;2.49;88.76;100386.09;88410;1271;96669;-63
2022/01/27 07:26:15;;;;;;;39.30;19.60;;;;;;;2.45;88.76;100391.02;88356;1271;88465;-63
2022/01/27 07:28:24;;;;;;;37.00;19.00;;;;;;;2.46;88.81;100391.70;88382;1271;95828;-64
2022/01/27 07:30:33;;;;;;;37.60;19.30;;;;;;;2.47;88.77;100387.89;88354;1271;80658;-83
2022/01/27 07:32:44;;;;;;;37.90;20.30;;;;;;;2.44;88.80;100388.50;88420;1271;80893;-62
2022/01/27 07:34:54;;;;;;;38.70;19.20;;;;;;;2.45;88.79;100387.28;88374;1271;98250;-64
2022/01/27 07:37:05;;;;;;;39.60;19.60;;;;;;;2.48;89.13;100392.39;88360;1271;87964;-63
2022/01/27 07:39:17;;;;;;;35.90;19.40;;;;;;;2.49;88.97;100388.23;88354;1271;95851;-63
2022/01/27 07:41:29;;;;;;;40.70;20.40;;;;;;;2.53;88.86;100396.88;88385;1271;79574;-63
2022/01/27 07:43:40;;;;;;;39.60;20.10;;;;;;;2.57;89.06;100390.34;88421;1271;82426;-81
2022/01/27 07:45:50;;;;;;;43.20;20.60;;;;;;;2.57;88.81;100388.52;88430;1271;95872;-76
2022/01/27 07:48:11;;;;;;;43.40;20.00;;;;;;;2.56;88.84;100387.37;88424;1271;88877;-63
2022/01/27 07:50:26;;;;;;;43.50;20.20;;;;;;;2.50;88.91;100389.33;88421;1271;95636;-64
2022/01/27 07:52:41;;;;;;;46.40;21.70;;;;;;;2.50;88.88;100388.63;88409;1271;80567;-65
2022/01/27 07:54:52;;;;;;;45.70;22.70;;;;;;;2.52;88.90;100387.36;88388;1271;82381;-64
2022/01/27 07:57:04;;;;;;;51.10;23.90;;;;;;;2.53;88.96;100378.58;88367;1271;98335;-64
2022/01/27 07:59:14;;;;;;;44.80;22.10;;;;;;;2.46;89.02;100369.28;88343;1271;90237;-65
2022/01/27 08:01:26;;;;;;;43.40;21.60;;;;;;;2.48;88.89;100358.79;88352;1271;92610;-76
2022/01/27 08:03:36;;;;;;;44.40;21.30;;;;;;;2.53;89.03;100362.02;88381;1271;80191;-64
2022/01/27 08:05:47;;;;;;;46.00;23.00;;;;;;;2.53;89.03;100363.17;88394;1271;79997;-65
2022/01/27 08:07:59;;;;;;;44.60;23.30;;;;;;;2.54;88.96;100369.22;88303;1271;96706;-76
2022/01/27 08:10:10;;;;;;;45.70;22.40;;;;;;;2.51;89.04;100361.21;88397;1271;87858;-75
2022/01/27 08:12:22;;;;;;;47.20;22.20;;;;;;;2.49;89.17;100356.77;88328;1271;94122;-65
2022/01/27 08:14:34;;;;;;;48.50;23.60;;;;;;;2.48;89.11;100347.98;88328;1271;79170;-75
2022/01/27 08:16:45;;;;;;;46.70;23.20;;;;;;;2.47;89.13;100342.92;88332;1271;82121;-66
2022/01/27 08:18:59;;;;;;;45.40;22.70;;;;;;;2.51;89.03;100334.33;88363;1271;97156;-63
2022/01/27 08:21:09;;;;;;;43.70;22.30;;;;;;;2.51;88.90;100328.81;88366;1271;89624;-64
2022/01/27 08:23:21;;;;;;;46.10;22.50;;;;;;;2.56;89.03;100319.14;88366;1271;95502;-74
2022/01/27 08:25:31;;;;;;;47.20;22.40;;;;;;;2.58;88.92;100309.17;88364;1271;80729;-74
2022/01/27 08:27:46;;;;;;;46.80;22.80;;;;;;;2.56;88.96;100305.05;88407;1271;83483;-63
2022/01/27 08:30:02;;;;;;;45.10;22.50;;;;;;;2.56;88.81;100305.08;88344;1271;97671;-64
2022/01/27 08:32:17;;;;;;;40.80;21.70;;;;;;;2.59;88.85;100308.86;88272;1271;89228;-72
2022/01/27 08:34:42;;;;;;;46.20;22.70;;;;;;;2.64;88.57;100308.61;88289;1271;95060;-75
2022/01/27 08:36:59;;;;;;;43.00;23.00;;;;;;;2.67;88.58;100307.99;88355;1271;79728;-75
2022/01/27 08:39:14;;;;;;;46.30;23.00;;;;;;;2.65;88.62;100303.31;88350;1271;81383;-65
2022/01/27 08:41:24;;;;;;;49.30;22.30;;;;;;;2.63;88.60;100293.35;88328;1271;99220;-63
2022/01/27 08:43:34;;;;;;;39.50;19.70;;;;;;;2.67;88.62;100292.50;88359;1271;89252;-64
2022/01/27 08:45:46;;;;;;;42.30;23.40;;;;;;;2.68;88.64;100289.70;88335;1271;94971;-65
2022/01/27 08:47:59;;;;;;;42.40;21.50;;;;;;;2.70;88.44;100283.50;88325;1271;81243;-75
2022/01/27 08:50:11;;;;;;;40.80;20.70;;;;;;;2.70;88.43;100283.65;88344;1271;81982;-76
2022/01/27 08:52:20;;;;;;;40.00;21.60;;;;;;;2.71;88.65;100279.84;88339;1271;98418;-74
2022/01/27 08:54:33;;;;;;;38.30;20.20;;;;;;;2.72;88.42;100292.89;88364;1271;86897;-75
2022/01/27 08:56:45;;;;;;;41.60;21.60;;;;;;;2.74;88.52;100296.98;88356;1271;94483;-74
2022/01/27 08:58:55;;;;;;;40.10;21.50;;;;;;;2.76;88.44;100295.39;88343;1271;79607;-74
2022/01/27 09:01:04;;;;;;;40.70;21.20;;;;;;;2.75;88.34;100291.56;88339;1271;84202;-74
2022/01/27 09:03:13;;;;;;;37.40;20.20;;;;;;;2.78;88.57;100292.15;88403;1271;98631;-75
2022/01/27 09:05:25;;;;;;;36.50;20.00;;;;;;;2.78;88.23;100284.02;88295;1271;88409;-74
2022/01/27 09:07:37;;;;;;;35.80;19.90;;;;;;;2.77;88.01;100282.70;88355;1271;95786;-65
2022/01/27 09:09:50;;;;;;;32.50;18.00;;;;;;;2.76;88.05;100273.90;88413;1271;78953;-64
2022/01/27 09:12:03;;;;;;;37.20;19.80;;;;;;;2.75;88.13;100276.80;88348;1271;82744;-65
2022/01/27 09:14:13;;;;;;;35.10;18.50;;;;;;;2.75;88.17;100275.90;88274;1271;97806;-74
2022/01/27 09:16:29;;;;;;;35.80;18.80;;;;;;;2.78;88.15;100270.31;88349;1271;86620;-73
2022/01/27 09:18:39;;;;;;;32.40;18.90;;;;;;;2.77;88.09;100266.16;88332;1271;95883;-76
2022/01/27 09:20:48;;;;;;;34.50;18.10;;;;;;;2.76;88.02;100259.77;88356;1271;80325;-75
2022/01/27 09:23:02;;;;;;;31.80;18.50;;;;;;;2.78;88.25;100258.02;88368;1271;81682;-74
2022/01/27 09:25:17;;;;;;;31.90;18.40;;;;;;;2.81;88.25;100256.65;88365;1271;97714;-75
2022/01/27 09:27:29;;;;;;;33.20;18.30;;;;;;;2.82;88.24;100253.00;88280;1271;87774;-66
2022/01/27 09:29:39;;;;;;;34.40;18.10;;;;;;;2.83;88.18;100247.58;88293;1271;96040;-65
2022/01/27 09:31:54;;;;;;;32.60;18.00;;;;;;;2.82;88.12;100240.26;88339;1271;78557;-65
2022/01/27 09:34:04;;;;;;;33.50;16.60;;;;;;;2.83;88.12;100236.73;88374;1271;82259;-74
2022/01/27 09:36:17;;;;;;;33.60;18.80;;;;;;;2.83;88.18;100233.89;88240;1274;96592;-75
2022/01/27 09:38:27;;;;;;;31.60;17.60;;;;;;;2.84;88.28;100233.82;88302;1271;87082;-73
2022/01/27 09:40:37;;;;;;;29.00;17.00;;;;;;;2.88;88.24;100230.60;88263;1271;95744;-74
2022/01/27 09:42:53;;;;;;;32.20;17.90;;;;;;;2.87;88.14;100229.97;88300;1271;81056;-75
2022/01/27 09:45:09;;;;;;;32.00;18.10;;;;;;;2.89;88.21;100226.53;88294;1274;80651;-74
2022/01/27 09:47:30;;;;;;;34.00;18.50;;;;;;;2.93;87.90;100219.75;88282;1271;97642;-65
2022/01/27 09:49:43;;;;;;;32.90;17.90;;;;;;;2.95;88.02;100221.91;88321;1271;89327;-66
2022/01/27 09:51:57;;;;;;;31.20;17.40;;;;;;;2.97;88.13;100220.84;88272;1271;95791;-66
2022/01/27 09:54:10;;;;;;;32.70;18.80;;;;;;;3.03;87.91;100218.52;88315;1274;79744;-75
2022/01/27 09:56:21;;;;;;;30.50;17.30;;;;;;;3.08;87.93;100210.34;88303;1271;81387;-75
2022/01/27 09:58:33;;;;;;;30.40;18.60;;;;;;;3.09;87.67;100208.33;88301;1271;98741;-75
2022/01/27 10:00:51;;;;;;;32.50;17.60;;;;;;;3.10;87.77;100205.52;88293;1271;87976;-75
2022/01/27 10:03:13;;;;;;;33.30;17.50;;;;;;;3.14;87.70;100203.41;88288;1271;94272;-76
2022/01/27 10:05:28;;;;;;;29.70;16.90;;;;;;;3.12;87.54;100197.30;88284;1271;80807;-75
2022/01/27 10:07:43;;;;;;;30.90;17.40;;;;;;;3.12;87.52;100190.79;88339;1271;83433;-75
2022/01/27 10:10:08;;;;;;;31.60;18.60;;;;;;;3.13;87.49;100193.46;88319;1271;96977;-75
2022/01/27 10:12:28;;;;;;;29.70;18.20;;;;;;;3.15;87.43;100195.98;88287;1271;89086;-74
2022/01/27 10:14:41;;;;;;;33.80;19.40;;;;;;;3.15;87.56;100187.50;88319;1271;95824;-76
2022/01/27 10:16:55;;;;;;;31.30;19.50;;;;;;;3.14;87.42;100186.08;88300;1271;78308;-74
2022/01/27 10:19:12;;;;;;;33.20;18.90;;;;;;;3.11;87.69;100181.04;88285;1271;83227;-65
2022/01/27 10:21:34;;;;;;;31.60;18.20;;;;;;;3.10;87.48;100186.27;88311;1271;99246;-66
2022/01/27 10:23:51;;;;;;;29.70;18.80;;;;;;;3.10;87.68;100182.13;88305;1271;88165;-75
2022/01/27 10:26:13;;;;;;;29.10;17.50;;;;;;;3.10;87.47;100181.33;88390;1265;93968;-77
2022/01/27 10:28:40;;;;;;;26.80;15.80;;;;;;;3.11;87.52;100177.70;88435;1268;80699;-74